sensor_id;sensor_type;location;lat;lon;timestamp;P1;durP1;ratioP1;P2;durP2;ratioP2
69534;SDS011;56754;51.568;5.048;2024-01-11T00:00:56;16.83;;;7.80;;
69534;SDS011;56754;51.568;5.048;2024-01-11T00:03:21;16.23;;;7.63;;
69534;SDS011;56754;51.568;5.048;2024-01-11T00:05:47;16.73;;;7.80;;
69534;SDS011;56754;51.568;5.048;2024-01-11T00:08:12;17.63;;;7.90;;
69534;SDS011;56754;51.568;5.048;2024-01-11T00:10:37;18.17;;;7.80;;
69534;SDS011;56754;51.568;5.048;2024-01-11T00:13:02;18.47;;;8.53;;
69534;SDS011;56754;51.568;5.048;2024-01-11T00:15:28;16.57;;;7.73;;
69534;SDS011;56754;51.568;5.048;2024-01-11T00:17:53;17.63;;;8.25;;
69534;SDS011;56754;51.568;5.048;2024-01-11T00:20:18;19.03;;;8.40;;
69534;SDS011;56754;51.568;5.048;2024-01-11T00:22:44;18.83;;;8.10;;
69534;SDS011;56754;51.568;5.048;2024-01-11T00:25:09;16.07;;;8.23;;
69534;SDS011;56754;51.568;5.048;2024-01-11T00:27:34;17.83;;;8.27;;
69534;SDS011;56754;51.568;5.048;2024-01-11T00:30:00;20.87;;;8.60;;
69534;SDS011;56754;51.568;5.048;2024-01-11T00:32:25;17.87;;;8.20;;
69534;SDS011;56754;51.568;5.048;2024-01-11T00:34:50;19.50;;;8.68;;
69534;SDS011;56754;51.568;5.048;2024-01-11T00:37:16;20.40;;;8.23;;
69534;SDS011;56754;51.568;5.048;2024-01-11T00:39:41;19.50;;;8.20;;
69534;SDS011;56754;51.568;5.048;2024-01-11T00:42:07;19.80;;;8.43;;
69534;SDS011;56754;51.568;5.048;2024-01-11T00:44:32;17.93;;;8.37;;
69534;SDS011;56754;51.568;5.048;2024-01-11T00:46:57;18.43;;;8.13;;
69534;SDS011;56754;51.568;5.048;2024-01-11T00:49:23;18.60;;;8.40;;
69534;SDS011;56754;51.568;5.048;2024-01-11T00:51:48;18.20;;;8.60;;
69534;SDS011;56754;51.568;5.048;2024-01-11T00:54:13;17.50;;;8.20;;
69534;SDS011;56754;51.568;5.048;2024-01-11T00:56:39;18.23;;;8.63;;
69534;SDS011;56754;51.568;5.048;2024-01-11T00:59:04;18.02;;;7.97;;
69534;SDS011;56754;51.568;5.048;2024-01-11T01:01:29;20.00;;;8.70;;
69534;SDS011;56754;51.568;5.048;2024-01-11T01:03:55;18.27;;;8.17;;
69534;SDS011;56754;51.568;5.048;2024-01-11T01:06:20;17.57;;;8.20;;
69534;SDS011;56754;51.568;5.048;2024-01-11T01:08:45;18.00;;;8.00;;
69534;SDS011;56754;51.568;5.048;2024-01-11T01:11:11;18.87;;;8.67;;
69534;SDS011;56754;51.568;5.048;2024-01-11T01:13:36;18.67;;;8.20;;
69534;SDS011;56754;51.568;5.048;2024-01-11T01:16:01;19.80;;;8.23;;
69534;SDS011;56754;51.568;5.048;2024-01-11T01:18:26;17.00;;;8.20;;
69534;SDS011;56754;51.568;5.048;2024-01-11T01:20:52;18.03;;;8.97;;
69534;SDS011;56754;51.568;5.048;2024-01-11T01:23:17;21.07;;;8.50;;
69534;SDS011;56754;51.568;5.048;2024-01-11T01:25:42;19.00;;;8.17;;
69534;SDS011;56754;51.568;5.048;2024-01-11T01:28:08;20.90;;;8.90;;
69534;SDS011;56754;51.568;5.048;2024-01-11T01:30:33;19.13;;;8.60;;
69534;SDS011;56754;51.568;5.048;2024-01-11T01:32:58;19.53;;;8.73;;
69534;SDS011;56754;51.568;5.048;2024-01-11T01:35:23;18.73;;;8.23;;
69534;SDS011;56754;51.568;5.048;2024-01-11T01:37:49;18.53;;;8.37;;
69534;SDS011;56754;51.568;5.048;2024-01-11T01:40:14;19.70;;;9.07;;
69534;SDS011;56754;51.568;5.048;2024-01-11T01:42:43;19.03;;;8.87;;
69534;SDS011;56754;51.568;5.048;2024-01-11T01:45:08;18.77;;;9.05;;
69534;SDS011;56754;51.568;5.048;2024-01-11T01:47:33;19.37;;;9.07;;
69534;SDS011;56754;51.568;5.048;2024-01-11T01:49:59;19.53;;;8.73;;
69534;SDS011;56754;51.568;5.048;2024-01-11T01:52:24;21.00;;;9.30;;
69534;SDS011;56754;51.568;5.048;2024-01-11T01:54:54;16.55;;;8.27;;
69534;SDS011;56754;51.568;5.048;2024-01-11T01:57:23;18.65;;;8.93;;
69534;SDS011;56754;51.568;5.048;2024-01-11T01:59:49;16.50;;;8.30;;
69534;SDS011;56754;51.568;5.048;2024-01-11T02:02:16;19.33;;;9.25;;
69534;SDS011;56754;51.568;5.048;2024-01-11T02:04:44;18.58;;;9.23;;
69534;SDS011;56754;51.568;5.048;2024-01-11T02:07:10;19.73;;;9.20;;
69534;SDS011;56754;51.568;5.048;2024-01-11T02:09:36;16.80;;;8.23;;
69534;SDS011;56754;51.568;5.048;2024-01-11T02:12:02;18.23;;;8.20;;
69534;SDS011;56754;51.568;5.048;2024-01-11T02:14:27;16.95;;;8.63;;
69534;SDS011;56754;51.568;5.048;2024-01-11T02:16:53;16.20;;;8.33;;
69534;SDS011;56754;51.568;5.048;2024-01-11T02:19:19;18.67;;;8.10;;
69534;SDS011;56754;51.568;5.048;2024-01-11T02:21:46;18.95;;;8.70;;
69534;SDS011;56754;51.568;5.048;2024-01-11T02:24:14;18.35;;;8.65;;
69534;SDS011;56754;51.568;5.048;2024-01-11T02:29:28;17.98;;;8.50;;
69534;SDS011;56754;51.568;5.048;2024-01-11T02:31:55;19.83;;;8.45;;
69534;SDS011;56754;51.568;5.048;2024-01-11T02:34:21;18.13;;;8.15;;
69534;SDS011;56754;51.568;5.048;2024-01-11T02:36:47;16.90;;;8.35;;
69534;SDS011;56754;51.568;5.048;2024-01-11T02:39:13;18.63;;;9.03;;
69534;SDS011;56754;51.568;5.048;2024-01-11T02:41:40;20.42;;;9.15;;
69534;SDS011;56754;51.568;5.048;2024-01-11T02:44:07;18.70;;;8.63;;
69534;SDS011;56754;51.568;5.048;2024-01-11T02:46:32;18.67;;;8.68;;
69534;SDS011;56754;51.568;5.048;2024-01-11T02:48:57;20.37;;;8.90;;
69534;SDS011;56754;51.568;5.048;2024-01-11T02:51:23;22.83;;;8.60;;
69534;SDS011;56754;51.568;5.048;2024-01-11T02:53:48;20.60;;;9.10;;
69534;SDS011;56754;51.568;5.048;2024-01-11T02:56:13;18.30;;;9.43;;
69534;SDS011;56754;51.568;5.048;2024-01-11T02:58:38;20.53;;;9.13;;
69534;SDS011;56754;51.568;5.048;2024-01-11T03:01:04;20.87;;;9.20;;
69534;SDS011;56754;51.568;5.048;2024-01-11T03:03:29;18.37;;;9.03;;
69534;SDS011;56754;51.568;5.048;2024-01-11T03:05:54;23.17;;;10.23;;
69534;SDS011;56754;51.568;5.048;2024-01-11T03:08:20;20.00;;;9.43;;
69534;SDS011;56754;51.568;5.048;2024-01-11T03:10:45;23.10;;;9.77;;
69534;SDS011;56754;51.568;5.048;2024-01-11T03:13:11;20.23;;;9.77;;
69534;SDS011;56754;51.568;5.048;2024-01-11T03:15:36;17.57;;;8.80;;
69534;SDS011;56754;51.568;5.048;2024-01-11T03:18:01;20.63;;;9.25;;
69534;SDS011;56754;51.568;5.048;2024-01-11T03:20:26;19.73;;;8.40;;
69534;SDS011;56754;51.568;5.048;2024-01-11T03:22:52;21.23;;;9.17;;
69534;SDS011;56754;51.568;5.048;2024-01-11T03:25:17;16.13;;;8.40;;
69534;SDS011;56754;51.568;5.048;2024-01-11T03:27:42;20.93;;;9.77;;
69534;SDS011;56754;51.568;5.048;2024-01-11T03:30:08;19.77;;;9.43;;
69534;SDS011;56754;51.568;5.048;2024-01-11T03:32:33;17.35;;;9.23;;
69534;SDS011;56754;51.568;5.048;2024-01-11T03:34:58;23.03;;;9.30;;
69534;SDS011;56754;51.568;5.048;2024-01-11T03:37:24;18.40;;;8.23;;
69534;SDS011;56754;51.568;5.048;2024-01-11T03:39:52;18.67;;;8.50;;
69534;SDS011;56754;51.568;5.048;2024-01-11T03:42:17;18.42;;;8.60;;
69534;SDS011;56754;51.568;5.048;2024-01-11T03:44:43;22.47;;;9.30;;
69534;SDS011;56754;51.568;5.048;2024-01-11T03:47:08;20.03;;;8.77;;
69534;SDS011;56754;51.568;5.048;2024-01-11T03:49:33;21.37;;;9.10;;
69534;SDS011;56754;51.568;5.048;2024-01-11T03:51:58;19.93;;;8.60;;
69534;SDS011;56754;51.568;5.048;2024-01-11T03:54:24;21.07;;;9.20;;
69534;SDS011;56754;51.568;5.048;2024-01-11T03:56:49;18.53;;;8.93;;
69534;SDS011;56754;51.568;5.048;2024-01-11T03:59:14;19.07;;;8.63;;
69534;SDS011;56754;51.568;5.048;2024-01-11T04:01:40;19.60;;;8.67;;
69534;SDS011;56754;51.568;5.048;2024-01-11T04:04:06;20.17;;;8.68;;
69534;SDS011;56754;51.568;5.048;2024-01-11T04:06:31;19.33;;;8.83;;
69534;SDS011;56754;51.568;5.048;2024-01-11T04:08:56;19.37;;;9.13;;
69534;SDS011;56754;51.568;5.048;2024-01-11T04:11:22;17.97;;;8.67;;
69534;SDS011;56754;51.568;5.048;2024-01-11T04:13:47;18.83;;;8.13;;
69534;SDS011;56754;51.568;5.048;2024-01-11T04:16:12;19.27;;;8.43;;
69534;SDS011;56754;51.568;5.048;2024-01-11T04:18:38;17.70;;;8.65;;
69534;SDS011;56754;51.568;5.048;2024-01-11T04:21:03;16.23;;;8.57;;
69534;SDS011;56754;51.568;5.048;2024-01-11T04:23:29;19.07;;;8.00;;
69534;SDS011;56754;51.568;5.048;2024-01-11T04:25:54;16.13;;;8.30;;
69534;SDS011;56754;51.568;5.048;2024-01-11T04:28:19;20.40;;;8.95;;
69534;SDS011;56754;51.568;5.048;2024-01-11T04:30:45;18.70;;;8.07;;
69534;SDS011;56754;51.568;5.048;2024-01-11T04:33:10;18.17;;;8.63;;
69534;SDS011;56754;51.568;5.048;2024-01-11T04:35:36;17.13;;;8.03;;
69534;SDS011;56754;51.568;5.048;2024-01-11T04:38:01;19.35;;;8.45;;
69534;SDS011;56754;51.568;5.048;2024-01-11T04:40:27;17.67;;;8.27;;
69534;SDS011;56754;51.568;5.048;2024-01-11T04:42:52;16.77;;;7.60;;
69534;SDS011;56754;51.568;5.048;2024-01-11T04:45:17;18.67;;;8.43;;
69534;SDS011;56754;51.568;5.048;2024-01-11T04:47:42;17.63;;;7.90;;
69534;SDS011;56754;51.568;5.048;2024-01-11T04:50:08;18.27;;;7.90;;
69534;SDS011;56754;51.568;5.048;2024-01-11T04:52:33;17.00;;;7.80;;
69534;SDS011;56754;51.568;5.048;2024-01-11T04:54:59;18.60;;;8.47;;
69534;SDS011;56754;51.568;5.048;2024-01-11T04:57:24;18.17;;;8.10;;
69534;SDS011;56754;51.568;5.048;2024-01-11T04:59:49;17.77;;;8.27;;
69534;SDS011;56754;51.568;5.048;2024-01-11T05:02:15;16.98;;;7.95;;
69534;SDS011;56754;51.568;5.048;2024-01-11T05:04:40;15.13;;;7.30;;
69534;SDS011;56754;51.568;5.048;2024-01-11T05:07:06;17.57;;;8.13;;
69534;SDS011;56754;51.568;5.048;2024-01-11T05:09:31;17.90;;;8.17;;
69534;SDS011;56754;51.568;5.048;2024-01-11T05:11:56;16.80;;;8.23;;
69534;SDS011;56754;51.568;5.048;2024-01-11T05:14:22;16.42;;;7.75;;
69534;SDS011;56754;51.568;5.048;2024-01-11T05:16:47;16.07;;;8.20;;
69534;SDS011;56754;51.568;5.048;2024-01-11T05:19:12;16.97;;;7.70;;
69534;SDS011;56754;51.568;5.048;2024-01-11T05:21:37;18.80;;;7.80;;
69534;SDS011;56754;51.568;5.048;2024-01-11T05:24:03;17.77;;;8.23;;
69534;SDS011;56754;51.568;5.048;2024-01-11T05:26:28;16.80;;;7.88;;
69534;SDS011;56754;51.568;5.048;2024-01-11T05:28:54;17.30;;;7.47;;
69534;SDS011;56754;51.568;5.048;2024-01-11T05:31:19;16.93;;;7.57;;
69534;SDS011;56754;51.568;5.048;2024-01-11T05:33:44;17.50;;;7.73;;
69534;SDS011;56754;51.568;5.048;2024-01-11T05:36:10;14.98;;;7.53;;
69534;SDS011;56754;51.568;5.048;2024-01-11T05:38:35;14.87;;;7.47;;
69534;SDS011;56754;51.568;5.048;2024-01-11T05:41:01;18.63;;;8.40;;
69534;SDS011;56754;51.568;5.048;2024-01-11T05:43:29;18.50;;;8.60;;
69534;SDS011;56754;51.568;5.048;2024-01-11T05:45:54;14.80;;;7.47;;
69534;SDS011;56754;51.568;5.048;2024-01-11T05:48:20;17.23;;;7.70;;
69534;SDS011;56754;51.568;5.048;2024-01-11T05:50:45;17.03;;;7.77;;
69534;SDS011;56754;51.568;5.048;2024-01-11T05:53:13;14.77;;;7.43;;
69534;SDS011;56754;51.568;5.048;2024-01-11T05:55:39;17.42;;;7.85;;
69534;SDS011;56754;51.568;5.048;2024-01-11T05:58:05;18.25;;;8.60;;
69534;SDS011;56754;51.568;5.048;2024-01-11T06:00:30;17.83;;;7.57;;
69534;SDS011;56754;51.568;5.048;2024-01-11T06:02:55;15.67;;;6.87;;
69534;SDS011;56754;51.568;5.048;2024-01-11T06:05:21;15.83;;;7.37;;
69534;SDS011;56754;51.568;5.048;2024-01-11T06:07:46;16.30;;;7.33;;
69534;SDS011;56754;51.568;5.048;2024-01-11T06:10:12;15.52;;;7.55;;
69534;SDS011;56754;51.568;5.048;2024-01-11T06:12:37;17.73;;;8.40;;
69534;SDS011;56754;51.568;5.048;2024-01-11T06:15:03;19.77;;;8.73;;
69534;SDS011;56754;51.568;5.048;2024-01-11T06:17:28;17.92;;;8.63;;
69534;SDS011;56754;51.568;5.048;2024-01-11T06:19:53;17.87;;;8.27;;
69534;SDS011;56754;51.568;5.048;2024-01-11T06:22:19;20.17;;;9.10;;
69534;SDS011;56754;51.568;5.048;2024-01-11T06:24:44;17.40;;;7.93;;
69534;SDS011;56754;51.568;5.048;2024-01-11T06:27:09;16.73;;;7.87;;
69534;SDS011;56754;51.568;5.048;2024-01-11T06:29:35;16.80;;;7.65;;
69534;SDS011;56754;51.568;5.048;2024-01-11T06:32:00;15.23;;;7.40;;
69534;SDS011;56754;51.568;5.048;2024-01-11T06:34:25;15.63;;;7.03;;
69534;SDS011;56754;51.568;5.048;2024-01-11T06:36:51;17.23;;;7.90;;
69534;SDS011;56754;51.568;5.048;2024-01-11T06:39:16;15.70;;;7.77;;
69534;SDS011;56754;51.568;5.048;2024-01-11T06:41:41;16.27;;;7.70;;
69534;SDS011;56754;51.568;5.048;2024-01-11T06:44:07;15.03;;;7.13;;
69534;SDS011;56754;51.568;5.048;2024-01-11T06:46:32;16.63;;;7.60;;
69534;SDS011;56754;51.568;5.048;2024-01-11T06:48:57;16.55;;;7.75;;
69534;SDS011;56754;51.568;5.048;2024-01-11T06:51:23;18.43;;;8.10;;
69534;SDS011;56754;51.568;5.048;2024-01-11T06:53:48;19.37;;;8.30;;
69534;SDS011;56754;51.568;5.048;2024-01-11T06:56:14;16.75;;;7.63;;
69534;SDS011;56754;51.568;5.048;2024-01-11T06:58:40;14.90;;;8.15;;
69534;SDS011;56754;51.568;5.048;2024-01-11T07:01:06;17.23;;;8.00;;
69534;SDS011;56754;51.568;5.048;2024-01-11T07:03:31;16.60;;;7.80;;
69534;SDS011;56754;51.568;5.048;2024-01-11T07:05:56;15.87;;;7.43;;
69534;SDS011;56754;51.568;5.048;2024-01-11T07:08:22;16.53;;;7.23;;
69534;SDS011;56754;51.568;5.048;2024-01-11T07:10:47;17.97;;;7.43;;
69534;SDS011;56754;51.568;5.048;2024-01-11T07:13:12;14.23;;;7.30;;
69534;SDS011;56754;51.568;5.048;2024-01-11T07:15:37;18.10;;;7.97;;
69534;SDS011;56754;51.568;5.048;2024-01-11T07:18:03;14.85;;;7.18;;
69534;SDS011;56754;51.568;5.048;2024-01-11T07:20:29;17.00;;;7.03;;
69534;SDS011;56754;51.568;5.048;2024-01-11T07:22:54;16.80;;;7.30;;
69534;SDS011;56754;51.568;5.048;2024-01-11T07:25:19;14.77;;;7.00;;
69534;SDS011;56754;51.568;5.048;2024-01-11T07:27:45;15.20;;;6.90;;
69534;SDS011;56754;51.568;5.048;2024-01-11T07:30:10;16.03;;;6.90;;
69534;SDS011;56754;51.568;5.048;2024-01-11T07:32:36;15.95;;;7.15;;
69534;SDS011;56754;51.568;5.048;2024-01-11T07:35:01;13.60;;;6.33;;
69534;SDS011;56754;51.568;5.048;2024-01-11T07:37:26;14.87;;;7.33;;
69534;SDS011;56754;51.568;5.048;2024-01-11T07:39:52;16.90;;;7.40;;
69534;SDS011;56754;51.568;5.048;2024-01-11T07:42:17;14.13;;;6.77;;
69534;SDS011;56754;51.568;5.048;2024-01-11T07:44:42;15.23;;;7.27;;
69534;SDS011;56754;51.568;5.048;2024-01-11T07:47:08;15.47;;;7.50;;
69534;SDS011;56754;51.568;5.048;2024-01-11T07:49:33;15.37;;;7.70;;
69534;SDS011;56754;51.568;5.048;2024-01-11T07:51:58;15.88;;;6.57;;
69534;SDS011;56754;51.568;5.048;2024-01-11T07:54:23;16.27;;;7.50;;
69534;SDS011;56754;51.568;5.048;2024-01-11T07:56:49;16.87;;;7.13;;
69534;SDS011;56754;51.568;5.048;2024-01-11T07:59:14;16.63;;;7.40;;
69534;SDS011;56754;51.568;5.048;2024-01-11T08:01:40;16.93;;;7.20;;
69534;SDS011;56754;51.568;5.048;2024-01-11T08:04:05;15.32;;;7.20;;
69534;SDS011;56754;51.568;5.048;2024-01-11T08:06:31;13.87;;;6.67;;
69534;SDS011;56754;51.568;5.048;2024-01-11T08:08:56;18.87;;;7.70;;
69534;SDS011;56754;51.568;5.048;2024-01-11T08:11:21;15.13;;;7.03;;
69534;SDS011;56754;51.568;5.048;2024-01-11T08:13:46;16.83;;;7.13;;
69534;SDS011;56754;51.568;5.048;2024-01-11T08:16:15;17.13;;;7.30;;
69534;SDS011;56754;51.568;5.048;2024-01-11T08:18:41;16.73;;;7.45;;
69534;SDS011;56754;51.568;5.048;2024-01-11T08:21:07;17.50;;;7.47;;
69534;SDS011;56754;51.568;5.048;2024-01-11T08:23:32;17.25;;;7.57;;
69534;SDS011;56754;51.568;5.048;2024-01-11T08:25:57;15.50;;;7.37;;
69534;SDS011;56754;51.568;5.048;2024-01-11T08:28:23;16.20;;;7.50;;
69534;SDS011;56754;51.568;5.048;2024-01-11T08:30:48;16.27;;;6.60;;
69534;SDS011;56754;51.568;5.048;2024-01-11T08:33:13;15.50;;;7.10;;
69534;SDS011;56754;51.568;5.048;2024-01-11T08:35:39;17.13;;;7.07;;
69534;SDS011;56754;51.568;5.048;2024-01-11T08:38:04;17.07;;;7.37;;
69534;SDS011;56754;51.568;5.048;2024-01-11T08:40:29;14.80;;;7.60;;
69534;SDS011;56754;51.568;5.048;2024-01-11T08:42:55;18.50;;;7.67;;
69534;SDS011;56754;51.568;5.048;2024-01-11T08:45:20;16.33;;;7.87;;
69534;SDS011;56754;51.568;5.048;2024-01-11T08:47:45;17.37;;;8.07;;
69534;SDS011;56754;51.568;5.048;2024-01-11T08:50:14;15.47;;;7.70;;
69534;SDS011;56754;51.568;5.048;2024-01-11T08:52:40;16.60;;;7.78;;
69534;SDS011;56754;51.568;5.048;2024-01-11T08:55:06;21.00;;;8.38;;
69534;SDS011;56754;51.568;5.048;2024-01-11T08:57:32;19.13;;;7.97;;
69534;SDS011;56754;51.568;5.048;2024-01-11T08:59:57;15.25;;;7.45;;
69534;SDS011;56754;51.568;5.048;2024-01-11T09:02:22;17.97;;;8.10;;
69534;SDS011;56754;51.568;5.048;2024-01-11T09:04:48;19.97;;;8.27;;
69534;SDS011;56754;51.568;5.048;2024-01-11T09:07:13;17.23;;;8.17;;
69534;SDS011;56754;51.568;5.048;2024-01-11T09:09:39;18.33;;;8.77;;
69534;SDS011;56754;51.568;5.048;2024-01-11T09:12:04;17.87;;;8.53;;
69534;SDS011;56754;51.568;5.048;2024-01-11T09:14:30;17.13;;;7.93;;
69534;SDS011;56754;51.568;5.048;2024-01-11T09:16:55;17.40;;;8.83;;
69534;SDS011;56754;51.568;5.048;2024-01-11T09:19:20;18.03;;;8.60;;
69534;SDS011;56754;51.568;5.048;2024-01-11T09:21:46;16.30;;;8.32;;
69534;SDS011;56754;51.568;5.048;2024-01-11T09:24:11;19.07;;;9.13;;
69534;SDS011;56754;51.568;5.048;2024-01-11T09:26:39;16.00;;;8.23;;
69534;SDS011;56754;51.568;5.048;2024-01-11T09:29:05;18.48;;;9.07;;
69534;SDS011;56754;51.568;5.048;2024-01-11T09:31:30;19.60;;;9.60;;
69534;SDS011;56754;51.568;5.048;2024-01-11T09:33:55;19.40;;;9.83;;
69534;SDS011;56754;51.568;5.048;2024-01-11T09:36:20;17.13;;;9.20;;
69534;SDS011;56754;51.568;5.048;2024-01-11T09:38:46;19.10;;;9.43;;
69534;SDS011;56754;51.568;5.048;2024-01-11T09:41:12;18.53;;;9.60;;
69534;SDS011;56754;51.568;5.048;2024-01-11T09:43:37;20.83;;;9.75;;
69534;SDS011;56754;51.568;5.048;2024-01-11T09:46:04;19.50;;;9.93;;
69534;SDS011;56754;51.568;5.048;2024-01-11T09:48:32;21.27;;;9.87;;
69534;SDS011;56754;51.568;5.048;2024-01-11T09:51:02;17.08;;;9.30;;
69534;SDS011;56754;51.568;5.048;2024-01-11T09:53:31;20.33;;;9.80;;
69534;SDS011;56754;51.568;5.048;2024-01-11T09:56:00;19.20;;;9.90;;
69534;SDS011;56754;51.568;5.048;2024-01-11T09:58:26;18.87;;;9.20;;
69534;SDS011;56754;51.568;5.048;2024-01-11T10:00:55;18.77;;;9.65;;
69534;SDS011;56754;51.568;5.048;2024-01-11T10:03:23;19.00;;;9.65;;
69534;SDS011;56754;51.568;5.048;2024-01-11T10:05:49;20.60;;;9.52;;
69534;SDS011;56754;51.568;5.048;2024-01-11T10:08:15;21.67;;;9.87;;
69534;SDS011;56754;51.568;5.048;2024-01-11T10:10:44;16.73;;;8.30;;
69534;SDS011;56754;51.568;5.048;2024-01-11T10:13:09;20.20;;;9.40;;
69534;SDS011;56754;51.568;5.048;2024-01-11T10:15:34;18.50;;;8.90;;
69534;SDS011;56754;51.568;5.048;2024-01-11T10:18:00;17.30;;;8.53;;
69534;SDS011;56754;51.568;5.048;2024-01-11T10:20:25;18.17;;;9.23;;
69534;SDS011;56754;51.568;5.048;2024-01-11T10:22:51;23.30;;;9.07;;
69534;SDS011;56754;51.568;5.048;2024-01-11T10:25:16;27.15;;;11.13;;
69534;SDS011;56754;51.568;5.048;2024-01-11T10:27:42;20.10;;;9.73;;
69534;SDS011;56754;51.568;5.048;2024-01-11T10:30:09;16.60;;;9.10;;
69534;SDS011;56754;51.568;5.048;2024-01-11T10:32:36;19.33;;;8.90;;
69534;SDS011;56754;51.568;5.048;2024-01-11T10:35:01;18.83;;;8.98;;
69534;SDS011;56754;51.568;5.048;2024-01-11T10:37:27;21.47;;;9.13;;
69534;SDS011;56754;51.568;5.048;2024-01-11T10:39:55;19.55;;;9.50;;
69534;SDS011;56754;51.568;5.048;2024-01-11T10:42:23;19.27;;;9.07;;
69534;SDS011;56754;51.568;5.048;2024-01-11T10:44:52;21.38;;;10.07;;
69534;SDS011;56754;51.568;5.048;2024-01-11T10:47:19;19.73;;;9.77;;
69534;SDS011;56754;51.568;5.048;2024-01-11T10:49:47;21.00;;;10.33;;
69534;SDS011;56754;51.568;5.048;2024-01-11T10:52:17;19.90;;;10.18;;
69534;SDS011;56754;51.568;5.048;2024-01-11T10:54:47;19.02;;;9.65;;
69534;SDS011;56754;51.568;5.048;2024-01-11T10:57:14;19.45;;;9.25;;
69534;SDS011;56754;51.568;5.048;2024-01-11T10:59:40;20.30;;;10.05;;
69534;SDS011;56754;51.568;5.048;2024-01-11T11:02:07;20.77;;;9.77;;
69534;SDS011;56754;51.568;5.048;2024-01-11T11:04:33;19.77;;;10.38;;
69534;SDS011;56754;51.568;5.048;2024-01-11T11:07:01;21.48;;;10.88;;
69534;SDS011;56754;51.568;5.048;2024-01-11T11:09:27;19.67;;;10.38;;
69534;SDS011;56754;51.568;5.048;2024-01-11T11:11:58;21.27;;;10.77;;
69534;SDS011;56754;51.568;5.048;2024-01-11T11:14:24;20.73;;;10.40;;
69534;SDS011;56754;51.568;5.048;2024-01-11T11:16:49;20.70;;;10.77;;
69534;SDS011;56754;51.568;5.048;2024-01-11T11:19:16;21.98;;;10.45;;
69534;SDS011;56754;51.568;5.048;2024-01-11T11:21:47;22.45;;;10.73;;
69534;SDS011;56754;51.568;5.048;2024-01-11T11:24:13;21.17;;;11.07;;
69534;SDS011;56754;51.568;5.048;2024-01-11T11:26:40;22.33;;;10.88;;
69534;SDS011;56754;51.568;5.048;2024-01-11T11:29:06;23.27;;;11.00;;
69534;SDS011;56754;51.568;5.048;2024-01-11T11:31:35;21.70;;;10.20;;
69534;SDS011;56754;51.568;5.048;2024-01-11T11:34:04;22.58;;;11.20;;
69534;SDS011;56754;51.568;5.048;2024-01-11T11:36:30;20.15;;;10.50;;
69534;SDS011;56754;51.568;5.048;2024-01-11T11:38:59;21.60;;;11.20;;
69534;SDS011;56754;51.568;5.048;2024-01-11T11:41:25;22.77;;;10.80;;
69534;SDS011;56754;51.568;5.048;2024-01-11T11:43:51;23.70;;;11.50;;
69534;SDS011;56754;51.568;5.048;2024-01-11T11:46:16;23.58;;;10.93;;
69534;SDS011;56754;51.568;5.048;2024-01-11T11:48:51;21.73;;;11.18;;
69534;SDS011;56754;51.568;5.048;2024-01-11T11:51:19;22.37;;;12.13;;
69534;SDS011;56754;51.568;5.048;2024-01-11T11:53:46;22.02;;;11.32;;
69534;SDS011;56754;51.568;5.048;2024-01-11T11:56:13;24.20;;;12.48;;
69534;SDS011;56754;51.568;5.048;2024-01-11T11:58:38;23.43;;;11.77;;
69534;SDS011;56754;51.568;5.048;2024-01-11T12:01:07;21.15;;;10.93;;
69534;SDS011;56754;51.568;5.048;2024-01-11T12:03:33;23.53;;;11.10;;
69534;SDS011;56754;51.568;5.048;2024-01-11T12:06:00;21.85;;;10.70;;
69534;SDS011;56754;51.568;5.048;2024-01-11T12:08:25;20.17;;;11.13;;
69534;SDS011;56754;51.568;5.048;2024-01-11T12:10:51;24.20;;;11.53;;
69534;SDS011;56754;51.568;5.048;2024-01-11T12:13:23;22.03;;;10.50;;
69534;SDS011;56754;51.568;5.048;2024-01-11T12:15:49;21.35;;;10.25;;
69534;SDS011;56754;51.568;5.048;2024-01-11T12:18:15;20.43;;;10.30;;
69534;SDS011;56754;51.568;5.048;2024-01-11T12:20:40;22.13;;;10.30;;
69534;SDS011;56754;51.568;5.048;2024-01-11T12:23:08;19.60;;;10.75;;
69534;SDS011;56754;51.568;5.048;2024-01-11T12:25:34;18.17;;;9.77;;
69534;SDS011;56754;51.568;5.048;2024-01-11T12:28:00;19.33;;;10.07;;
69534;SDS011;56754;51.568;5.048;2024-01-11T12:30:25;18.93;;;10.63;;
69534;SDS011;56754;51.568;5.048;2024-01-11T12:32:51;23.33;;;9.93;;
69534;SDS011;56754;51.568;5.048;2024-01-11T12:35:17;17.92;;;9.88;;
69534;SDS011;56754;51.568;5.048;2024-01-11T12:37:55;18.93;;;9.73;;
69534;SDS011;56754;51.568;5.048;2024-01-11T12:40:23;20.98;;;9.98;;
69534;SDS011;56754;51.568;5.048;2024-01-11T12:42:49;20.07;;;9.83;;
69534;SDS011;56754;51.568;5.048;2024-01-11T12:45:14;17.60;;;9.67;;
69534;SDS011;56754;51.568;5.048;2024-01-11T12:47:43;17.58;;;9.38;;
69534;SDS011;56754;51.568;5.048;2024-01-11T12:50:08;17.45;;;8.70;;
69534;SDS011;56754;51.568;5.048;2024-01-11T12:55:36;14.00;;;7.47;;
69534;SDS011;56754;51.568;5.048;2024-01-11T12:58:05;13.80;;;6.80;;
69534;SDS011;56754;51.568;5.048;2024-01-11T13:00:33;14.13;;;7.45;;
69534;SDS011;56754;51.568;5.048;2024-01-11T13:03:00;13.90;;;6.55;;
69534;SDS011;56754;51.568;5.048;2024-01-11T13:05:26;11.90;;;5.93;;
69534;SDS011;56754;51.568;5.048;2024-01-11T13:07:51;13.33;;;6.47;;
69534;SDS011;56754;51.568;5.048;2024-01-11T13:10:16;12.55;;;6.18;;
69534;SDS011;56754;51.568;5.048;2024-01-11T13:12:42;13.57;;;6.60;;
69534;SDS011;56754;51.568;5.048;2024-01-11T13:15:07;12.60;;;5.70;;
69534;SDS011;56754;51.568;5.048;2024-01-11T13:17:33;14.40;;;5.83;;
69534;SDS011;56754;51.568;5.048;2024-01-11T13:19:58;12.47;;;6.03;;
69534;SDS011;56754;51.568;5.048;2024-01-11T13:22:23;12.00;;;6.00;;
69534;SDS011;56754;51.568;5.048;2024-01-11T13:24:49;12.60;;;5.90;;
69534;SDS011;56754;51.568;5.048;2024-01-11T13:27:14;12.57;;;5.97;;
69534;SDS011;56754;51.568;5.048;2024-01-11T13:29:39;11.70;;;5.77;;
69534;SDS011;56754;51.568;5.048;2024-01-11T13:32:05;12.37;;;5.50;;
69534;SDS011;56754;51.568;5.048;2024-01-11T13:34:30;12.77;;;5.77;;
69534;SDS011;56754;51.568;5.048;2024-01-11T13:36:55;13.23;;;5.13;;
69534;SDS011;56754;51.568;5.048;2024-01-11T13:39:27;12.52;;;5.82;;
69534;SDS011;56754;51.568;5.048;2024-01-11T13:41:52;10.33;;;4.87;;
69534;SDS011;56754;51.568;5.048;2024-01-11T13:44:17;12.98;;;5.60;;
69534;SDS011;56754;51.568;5.048;2024-01-11T13:46:43;12.23;;;5.40;;
69534;SDS011;56754;51.568;5.048;2024-01-11T13:49:08;12.03;;;5.53;;
69534;SDS011;56754;51.568;5.048;2024-01-11T13:51:33;11.60;;;5.27;;
69534;SDS011;56754;51.568;5.048;2024-01-11T13:53:58;11.97;;;4.83;;
69534;SDS011;56754;51.568;5.048;2024-01-11T13:56:24;10.77;;;4.90;;
69534;SDS011;56754;51.568;5.048;2024-01-11T13:58:49;11.90;;;4.80;;
69534;SDS011;56754;51.568;5.048;2024-01-11T14:01:15;10.37;;;4.90;;
69534;SDS011;56754;51.568;5.048;2024-01-11T14:03:40;10.47;;;4.60;;
69534;SDS011;56754;51.568;5.048;2024-01-11T14:06:05;11.57;;;4.93;;
69534;SDS011;56754;51.568;5.048;2024-01-11T14:08:31;11.40;;;4.60;;
69534;SDS011;56754;51.568;5.048;2024-01-11T14:10:56;10.37;;;4.33;;
69534;SDS011;56754;51.568;5.048;2024-01-11T14:13:21;10.37;;;4.50;;
69534;SDS011;56754;51.568;5.048;2024-01-11T14:15:47;11.47;;;4.67;;
69534;SDS011;56754;51.568;5.048;2024-01-11T14:18:12;9.83;;;4.60;;
69534;SDS011;56754;51.568;5.048;2024-01-11T14:20:37;11.20;;;4.40;;
69534;SDS011;56754;51.568;5.048;2024-01-11T14:23:04;11.40;;;4.00;;
69534;SDS011;56754;51.568;5.048;2024-01-11T14:25:29;9.95;;;4.38;;
69534;SDS011;56754;51.568;5.048;2024-01-11T14:27:54;9.10;;;4.17;;
69534;SDS011;56754;51.568;5.048;2024-01-11T14:30:20;9.87;;;4.30;;